sensor_id;sensor_type;location;lat;lon;timestamp;temperature;humidity
46091;DHT22;31826;53.572;10.170;2022-11-18T00:00:50;2.00;99.90
46091;DHT22;31826;53.572;10.170;2022-11-18T00:03:17;1.90;99.90
46091;DHT22;31826;53.572;10.170;2022-11-18T00:05:51;1.90;99.90
46091;DHT22;31826;53.572;10.170;2022-11-18T00:08:17;1.90;99.90
46091;DHT22;31826;53.572;10.170;2022-11-18T00:10:42;2.00;99.90
46091;DHT22;31826;53.572;10.170;2022-11-18T00:13:11;1.90;99.90
46091;DHT22;31826;53.572;10.170;2022-11-18T00:16:07;1.90;99.90
46091;DHT22;31826;53.572;10.170;2022-11-18T00:18:33;1.90;99.90
46091;DHT22;31826;53.572;10.170;2022-11-18T00:21:07;1.80;99.90
46091;DHT22;31826;53.572;10.170;2022-11-18T00:23:33;2.00;99.90
46091;DHT22;31826;53.572;10.170;2022-11-18T00:26:12;1.90;99.90
46091;DHT22;31826;53.572;10.170;2022-11-18T00:28:39;2.00;99.90
46091;DHT22;31826;53.572;10.170;2022-11-18T00:31:07;2.00;99.90
46091;DHT22;31826;53.572;10.170;2022-11-18T00:33:33;1.90;99.90
46091;DHT22;31826;53.572;10.170;2022-11-18T00:36:02;1.90;99.90
46091;DHT22;31826;53.572;10.170;2022-11-18T00:38:28;1.80;99.90
46091;DHT22;31826;53.572;10.170;2022-11-18T00:41:05;1.80;99.90
46091;DHT22;31826;53.572;10.170;2022-11-18T00:43:32;1.80;99.90
46091;DHT22;31826;53.572;10.170;2022-11-18T00:45:58;1.80;99.90
46091;DHT22;31826;53.572;10.170;2022-11-18T00:48:24;1.80;99.90
46091;DHT22;31826;53.572;10.170;2022-11-18T00:50:51;1.70;99.90
46091;DHT22;31826;53.572;10.170;2022-11-18T00:53:17;1.80;99.90
46091;DHT22;31826;53.572;10.170;2022-11-18T00:55:43;1.80;99.90
46091;DHT22;31826;53.572;10.170;2022-11-18T00:58:10;1.70;99.90
46091;DHT22;31826;53.572;10.170;2022-11-18T01:00:42;1.70;99.90
46091;DHT22;31826;53.572;10.170;2022-11-18T01:03:09;1.70;99.90
46091;DHT22;31826;53.572;10.170;2022-11-18T01:05:36;1.70;99.90
46091;DHT22;31826;53.572;10.170;2022-11-18T01:08:03;1.70;99.90
46091;DHT22;31826;53.572;10.170;2022-11-18T01:10:28;1.90;99.90
46091;DHT22;31826;53.572;10.170;2022-11-18T01:12:54;1.80;99.90
46091;DHT22;31826;53.572;10.170;2022-11-18T01:15:43;1.70;99.90
46091;DHT22;31826;53.572;10.170;2022-11-18T01:18:09;1.70;99.90
46091;DHT22;31826;53.572;10.170;2022-11-18T01:20:35;1.70;99.90
46091;DHT22;31826;53.572;10.170;2022-11-18T01:23:02;1.70;99.90
46091;DHT22;31826;53.572;10.170;2022-11-18T01:25:28;1.60;99.90
46091;DHT22;31826;53.572;10.170;2022-11-18T01:27:54;1.60;99.90
46091;DHT22;31826;53.572;10.170;2022-11-18T01:30:20;1.50;99.90
46091;DHT22;31826;53.572;10.170;2022-11-18T01:32:46;1.50;99.90
46091;DHT22;31826;53.572;10.170;2022-11-18T01:35:12;1.50;99.90
46091;DHT22;31826;53.572;10.170;2022-11-18T01:37:38;1.60;99.90
46091;DHT22;31826;53.572;10.170;2022-11-18T01:40:05;1.50;99.90
46091;DHT22;31826;53.572;10.170;2022-11-18T01:42:31;1.60;99.90
46091;DHT22;31826;53.572;10.170;2022-11-18T01:45:03;1.50;99.90
46091;DHT22;31826;53.572;10.170;2022-11-18T01:47:47;1.50;99.90
46091;DHT22;31826;53.572;10.170;2022-11-18T01:50:15;1.50;99.90
46091;DHT22;31826;53.572;10.170;2022-11-18T01:52:41;1.50;99.90
46091;DHT22;31826;53.572;10.170;2022-11-18T01:55:13;1.50;99.90
46091;DHT22;31826;53.572;10.170;2022-11-18T01:57:42;1.50;99.90
46091;DHT22;31826;53.572;10.170;2022-11-18T02:00:09;1.50;99.90
46091;DHT22;31826;53.572;10.170;2022-11-18T02:02:37;1.60;99.90
46091;DHT22;31826;53.572;10.170;2022-11-18T02:05:05;1.40;99.90
46091;DHT22;31826;53.572;10.170;2022-11-18T02:07:36;1.60;99.90
46091;DHT22;31826;53.572;10.170;2022-11-18T02:10:06;1.50;99.90
46091;DHT22;31826;53.572;10.170;2022-11-18T02:12:32;1.50;99.90
46091;DHT22;31826;53.572;10.170;2022-11-18T02:14:58;1.60;99.90
46091;DHT22;31826;53.572;10.170;2022-11-18T02:17:40;1.60;99.90
46091;DHT22;31826;53.572;10.170;2022-11-18T02:20:23;1.60;99.90
46091;DHT22;31826;53.572;10.170;2022-11-18T02:28:35;1.50;99.90
46091;DHT22;31826;53.572;10.170;2022-11-18T02:31:24;1.50;99.90
46091;DHT22;31826;53.572;10.170;2022-11-18T02:39:43;1.50;99.90
46091;DHT22;31826;53.572;10.170;2022-11-18T02:42:11;1.50;99.90
46091;DHT22;31826;53.572;10.170;2022-11-18T02:44:42;1.50;99.90
46091;DHT22;31826;53.572;10.170;2022-11-18T02:47:12;1.50;99.90
46091;DHT22;31826;53.572;10.170;2022-11-18T02:49:45;1.50;99.90
46091;DHT22;31826;53.572;10.170;2022-11-18T02:52:14;1.50;99.90
46091;DHT22;31826;53.572;10.170;2022-11-18T02:54:42;1.50;99.90
46091;DHT22;31826;53.572;10.170;2022-11-18T02:57:09;1.60;99.90
46091;DHT22;31826;53.572;10.170;2022-11-18T02:59:35;1.50;99.90
46091;DHT22;31826;53.572;10.170;2022-11-18T03:02:01;1.50;99.90
46091;DHT22;31826;53.572;10.170;2022-11-18T03:04:27;1.60;99.90
46091;DHT22;31826;53.572;10.170;2022-11-18T03:07:04;1.50;99.90
46091;DHT22;31826;53.572;10.170;2022-11-18T03:09:38;1.50;99.90
46091;DHT22;31826;53.572;10.170;2022-11-18T03:15:17;1.60;99.90
46091;DHT22;31826;53.572;10.170;2022-11-18T03:18:00;1.50;99.90
46091;DHT22;31826;53.572;10.170;2022-11-18T03:20:34;1.50;99.90
46091;DHT22;31826;53.572;10.170;2022-11-18T03:28:29;1.40;99.90
46091;DHT22;31826;53.572;10.170;2022-11-18T03:33:53;1.40;99.90
46091;DHT22;31826;53.572;10.170;2022-11-18T03:36:22;1.40;99.90
46091;DHT22;31826;53.572;10.170;2022-11-18T03:38:52;1.50;99.90
46091;DHT22;31826;53.572;10.170;2022-11-18T03:41:19;1.50;99.90
46091;DHT22;31826;53.572;10.170;2022-11-18T03:43:51;1.40;99.90
46091;DHT22;31826;53.572;10.170;2022-11-18T03:46:46;1.40;99.90
46091;DHT22;31826;53.572;10.170;2022-11-18T03:49:18;1.40;99.90
46091;DHT22;31826;53.572;10.170;2022-11-18T03:51:52;1.40;99.90
46091;DHT22;31826;53.572;10.170;2022-11-18T03:54:31;1.40;99.90
46091;DHT22;31826;53.572;10.170;2022-11-18T03:57:19;1.40;99.90
46091;DHT22;31826;53.572;10.170;2022-11-18T04:00:18;1.40;99.90
46091;DHT22;31826;53.572;10.170;2022-11-18T04:02:46;1.40;99.90
46091;DHT22;31826;53.572;10.170;2022-11-18T04:05:15;1.40;99.90
46091;DHT22;31826;53.572;10.170;2022-11-18T04:11:05;1.40;99.90
46091;DHT22;31826;53.572;10.170;2022-11-18T04:13:32;1.40;99.90
46091;DHT22;31826;53.572;10.170;2022-11-18T04:15:59;1.30;99.90
46091;DHT22;31826;53.572;10.170;2022-11-18T04:18:25;1.30;99.90
46091;DHT22;31826;53.572;10.170;2022-11-18T04:20:51;1.30;99.90
46091;DHT22;31826;53.572;10.170;2022-11-18T04:23:17;1.30;99.90
46091;DHT22;31826;53.572;10.170;2022-11-18T04:25:43;1.30;99.90
46091;DHT22;31826;53.572;10.170;2022-11-18T04:28:09;1.40;99.90
46091;DHT22;31826;53.572;10.170;2022-11-18T04:30:35;1.30;99.90
46091;DHT22;31826;53.572;10.170;2022-11-18T04:33:01;1.30;99.90
46091;DHT22;31826;53.572;10.170;2022-11-18T04:35:27;1.30;99.90
46091;DHT22;31826;53.572;10.170;2022-11-18T04:37:53;1.20;99.90
46091;DHT22;31826;53.572;10.170;2022-11-18T04:40:19;1.30;99.90
46091;DHT22;31826;53.572;10.170;2022-11-18T04:42:45;1.30;99.90
46091;DHT22;31826;53.572;10.170;2022-11-18T04:45:11;1.30;99.90
46091;DHT22;31826;53.572;10.170;2022-11-18T04:47:37;1.30;99.90
46091;DHT22;31826;53.572;10.170;2022-11-18T04:50:03;1.20;99.90
46091;DHT22;31826;53.572;10.170;2022-11-18T04:52:29;1.20;99.90
46091;DHT22;31826;53.572;10.170;2022-11-18T04:54:55;1.30;99.90
46091;DHT22;31826;53.572;10.170;2022-11-18T04:57:21;1.30;99.90
46091;DHT22;31826;53.572;10.170;2022-11-18T04:59:46;1.20;99.90
46091;DHT22;31826;53.572;10.170;2022-11-18T05:02:13;1.30;99.90
46091;DHT22;31826;53.572;10.170;2022-11-18T05:04:38;1.30;99.90
46091;DHT22;31826;53.572;10.170;2022-11-18T05:07:05;1.30;99.90
46091;DHT22;31826;53.572;10.170;2022-11-18T05:09:32;1.30;99.90
46091;DHT22;31826;53.572;10.170;2022-11-18T05:11:59;1.20;99.90
46091;DHT22;31826;53.572;10.170;2022-11-18T05:14:43;1.20;99.90
46091;DHT22;31826;53.572;10.170;2022-11-18T05:17:09;1.20;99.90
46091;DHT22;31826;53.572;10.170;2022-11-18T05:19:37;1.20;99.90
46091;DHT22;31826;53.572;10.170;2022-11-18T05:22:04;1.20;99.90
46091;DHT22;31826;53.572;10.170;2022-11-18T05:24:29;1.30;99.90
46091;DHT22;31826;53.572;10.170;2022-11-18T05:26:55;1.20;99.90
46091;DHT22;31826;53.572;10.170;2022-11-18T05:29:21;1.20;99.90
46091;DHT22;31826;53.572;10.170;2022-11-18T05:31:47;1.20;99.90
46091;DHT22;31826;53.572;10.170;2022-11-18T05:34:14;1.20;99.90
46091;DHT22;31826;53.572;10.170;2022-11-18T05:36:40;1.20;99.90
46091;DHT22;31826;53.572;10.170;2022-11-18T05:39:06;1.20;99.90
46091;DHT22;31826;53.572;10.170;2022-11-18T05:41:31;1.20;99.90
46091;DHT22;31826;53.572;10.170;2022-11-18T05:44:16;1.20;99.90
46091;DHT22;31826;53.572;10.170;2022-11-18T05:46:41;1.30;99.90
46091;DHT22;31826;53.572;10.170;2022-11-18T05:49:07;1.10;99.90
46091;DHT22;31826;53.572;10.170;2022-11-18T05:51:33;1.20;99.90
46091;DHT22;31826;53.572;10.170;2022-11-18T05:54:03;1.00;99.90
46091;DHT22;31826;53.572;10.170;2022-11-18T05:56:35;1.10;99.90
46091;DHT22;31826;53.572;10.170;2022-11-18T05:59:01;1.00;99.90
46091;DHT22;31826;53.572;10.170;2022-11-18T06:04:12;1.00;99.90
46091;DHT22;31826;53.572;10.170;2022-11-18T06:06:38;1.10;99.90
46091;DHT22;31826;53.572;10.170;2022-11-18T06:09:06;1.20;99.90
46091;DHT22;31826;53.572;10.170;2022-11-18T06:11:39;1.10;99.90
46091;DHT22;31826;53.572;10.170;2022-11-18T06:14:24;1.10;99.90
46091;DHT22;31826;53.572;10.170;2022-11-18T06:16:55;1.20;99.90
46091;DHT22;31826;53.572;10.170;2022-11-18T06:19:22;1.10;99.90
46091;DHT22;31826;53.572;10.170;2022-11-18T06:21:48;1.10;99.90
46091;DHT22;31826;53.572;10.170;2022-11-18T06:24:15;1.10;99.90
46091;DHT22;31826;53.572;10.170;2022-11-18T06:26:41;1.10;99.90
46091;DHT22;31826;53.572;10.170;2022-11-18T06:29:09;1.10;99.90
46091;DHT22;31826;53.572;10.170;2022-11-18T06:31:35;1.10;99.90
46091;DHT22;31826;53.572;10.170;2022-11-18T06:34:01;1.10;99.90
46091;DHT22;31826;53.572;10.170;2022-11-18T06:36:27;1.00;99.90
46091;DHT22;31826;53.572;10.170;2022-11-18T06:38:52;1.00;99.90
46091;DHT22;31826;53.572;10.170;2022-11-18T06:41:18;1.00;99.90
46091;DHT22;31826;53.572;10.170;2022-11-18T06:43:44;1.10;99.90
46091;DHT22;31826;53.572;10.170;2022-11-18T06:46:14;1.20;99.90
46091;DHT22;31826;53.572;10.170;2022-11-18T06:48:59;1.10;99.90
46091;DHT22;31826;53.572;10.170;2022-11-18T06:51:25;1.10;99.90
46091;DHT22;31826;53.572;10.170;2022-11-18T06:53:51;1.00;99.90
46091;DHT22;31826;53.572;10.170;2022-11-18T06:56:18;1.00;99.90
46091;DHT22;31826;53.572;10.170;2022-11-18T06:58:45;1.00;99.90
46091;DHT22;31826;53.572;10.170;2022-11-18T07:01:18;1.10;99.90
46091;DHT22;31826;53.572;10.170;2022-11-18T07:03:46;1.10;99.90
46091;DHT22;31826;53.572;10.170;2022-11-18T07:06:18;1.10;99.90
46091;DHT22;31826;53.572;10.170;2022-11-18T07:08:44;1.10;99.90
46091;DHT22;31826;53.572;10.170;2022-11-18T07:11:12;1.10;99.90
46091;DHT22;31826;53.572;10.170;2022-11-18T07:13:39;1.10;99.90
46091;DHT22;31826;53.572;10.170;2022-11-18T07:16:07;1.00;99.90
46091;DHT22;31826;53.572;10.170;2022-11-18T07:18:35;1.00;99.90
46091;DHT22;31826;53.572;10.170;2022-11-18T07:21:03;1.00;99.90
46091;DHT22;31826;53.572;10.170;2022-11-18T07:23:30;1.00;99.90
46091;DHT22;31826;53.572;10.170;2022-11-18T07:25:56;1.00;99.90
46091;DHT22;31826;53.572;10.170;2022-11-18T07:28:22;0.90;99.90
46091;DHT22;31826;53.572;10.170;2022-11-18T07:30:48;0.90;99.90
46091;DHT22;31826;53.572;10.170;2022-11-18T07:33:14;1.00;99.90
46091;DHT22;31826;53.572;10.170;2022-11-18T07:35:39;0.90;99.90
46091;DHT22;31826;53.572;10.170;2022-11-18T07:38:05;0.90;99.90
46091;DHT22;31826;53.572;10.170;2022-11-18T07:40:31;1.00;99.90
46091;DHT22;31826;53.572;10.170;2022-11-18T07:42:56;1.00;99.90
46091;DHT22;31826;53.572;10.170;2022-11-18T07:45:22;0.90;99.90
46091;DHT22;31826;53.572;10.170;2022-11-18T07:47:48;1.00;99.90
46091;DHT22;31826;53.572;10.170;2022-11-18T07:50:16;1.00;99.90
46091;DHT22;31826;53.572;10.170;2022-11-18T07:52:41;1.00;99.90
46091;DHT22;31826;53.572;10.170;2022-11-18T07:55:07;1.00;99.90
46091;DHT22;31826;53.572;10.170;2022-11-18T07:57:33;1.00;99.90
46091;DHT22;31826;53.572;10.170;2022-11-18T07:59:59;1.00;99.90
46091;DHT22;31826;53.572;10.170;2022-11-18T08:02:24;0.90;99.90
46091;DHT22;31826;53.572;10.170;2022-11-18T08:04:50;0.90;99.90
46091;DHT22;31826;53.572;10.170;2022-11-18T08:07:16;0.90;99.90
46091;DHT22;31826;53.572;10.170;2022-11-18T08:09:41;0.90;99.90
46091;DHT22;31826;53.572;10.170;2022-11-18T08:12:07;1.00;99.90
46091;DHT22;31826;53.572;10.170;2022-11-18T08:14:33;0.90;99.90
46091;DHT22;31826;53.572;10.170;2022-11-18T08:16:59;1.00;99.90
46091;DHT22;31826;53.572;10.170;2022-11-18T08:19:25;0.90;99.90
46091;DHT22;31826;53.572;10.170;2022-11-18T08:21:50;0.90;99.90
46091;DHT22;31826;53.572;10.170;2022-11-18T08:24:16;0.90;99.90
46091;DHT22;31826;53.572;10.170;2022-11-18T08:26:41;0.90;99.90
46091;DHT22;31826;53.572;10.170;2022-11-18T08:29:07;0.90;99.90
46091;DHT22;31826;53.572;10.170;2022-11-18T08:31:33;0.90;99.90
46091;DHT22;31826;53.572;10.170;2022-11-18T08:34:00;0.90;99.90
46091;DHT22;31826;53.572;10.170;2022-11-18T08:36:30;1.10;99.90
46091;DHT22;31826;53.572;10.170;2022-11-18T08:38:56;1.00;99.90
46091;DHT22;31826;53.572;10.170;2022-11-18T08:41:32;1.10;99.90
46091;DHT22;31826;53.572;10.170;2022-11-18T08:43:59;1.10;99.90
46091;DHT22;31826;53.572;10.170;2022-11-18T08:46:25;1.10;99.90
46091;DHT22;31826;53.572;10.170;2022-11-18T08:48:51;1.00;99.90
46091;DHT22;31826;53.572;10.170;2022-11-18T08:51:17;1.10;99.90
46091;DHT22;31826;53.572;10.170;2022-11-18T08:53:42;1.00;99.90
46091;DHT22;31826;53.572;10.170;2022-11-18T08:56:14;1.00;99.90
46091;DHT22;31826;53.572;10.170;2022-11-18T08:58:41;1.00;99.90
46091;DHT22;31826;53.572;10.170;2022-11-18T09:01:07;1.00;99.90
46091;DHT22;31826;53.572;10.170;2022-11-18T09:03:33;1.10;99.90
46091;DHT22;31826;53.572;10.170;2022-11-18T09:06:10;1.00;99.90
46091;DHT22;31826;53.572;10.170;2022-11-18T09:08:36;1.10;99.90
46091;DHT22;31826;53.572;10.170;2022-11-18T09:11:09;1.10;99.90
46091;DHT22;31826;53.572;10.170;2022-11-18T09:13:35;1.20;99.90
46091;DHT22;31826;53.572;10.170;2022-11-18T09:18:32;1.20;99.90
46091;DHT22;31826;53.572;10.170;2022-11-18T09:21:03;1.10;99.90
46091;DHT22;31826;53.572;10.170;2022-11-18T09:23:31;1.20;99.90
46091;DHT22;31826;53.572;10.170;2022-11-18T09:26:08;1.20;99.90
46091;DHT22;31826;53.572;10.170;2022-11-18T09:28:35;1.20;99.90
46091;DHT22;31826;53.572;10.170;2022-11-18T09:31:05;1.20;99.90
46091;DHT22;31826;53.572;10.170;2022-11-18T09:33:33;1.20;99.90
46091;DHT22;31826;53.572;10.170;2022-11-18T09:35:59;1.20;99.90
46091;DHT22;31826;53.572;10.170;2022-11-18T09:38:24;1.30;99.90
46091;DHT22;31826;53.572;10.170;2022-11-18T09:49:02;1.40;99.90
46091;DHT22;31826;53.572;10.170;2022-11-18T09:51:46;1.40;99.90
46091;DHT22;31826;53.572;10.170;2022-11-18T09:56:45;1.40;99.90
46091;DHT22;31826;53.572;10.170;2022-11-18T09:59:13;1.30;99.90
46091;DHT22;31826;53.572;10.170;2022-11-18T10:01:40;1.40;99.90
46091;DHT22;31826;53.572;10.170;2022-11-18T10:04:15;1.40;99.90
46091;DHT22;31826;53.572;10.170;2022-11-18T10:06:42;1.50;99.90
46091;DHT22;31826;53.572;10.170;2022-11-18T10:11:53;1.50;99.90
46091;DHT22;31826;53.572;10.170;2022-11-18T10:17:08;1.60;99.90
46091;DHT22;31826;53.572;10.170;2022-11-18T10:19:51;1.60;99.90
46091;DHT22;31826;53.572;10.170;2022-11-18T10:25:17;1.60;99.90
46091;DHT22;31826;53.572;10.170;2022-11-18T10:27:45;1.70;99.90
46091;DHT22;31826;53.572;10.170;2022-11-18T10:30:17;1.60;99.90
46091;DHT22;31826;53.572;10.170;2022-11-18T10:33:14;1.60;99.90
46091;DHT22;31826;53.572;10.170;2022-11-18T10:35:42;1.70;99.90
46091;DHT22;31826;53.572;10.170;2022-11-18T10:51:35;1.70;99.90
46091;DHT22;31826;53.572;10.170;2022-11-18T10:54:15;1.70;99.90
46091;DHT22;31826;53.572;10.170;2022-11-18T10:57:01;1.70;99.90
46091;DHT22;31826;53.572;10.170;2022-11-18T10:59:53;1.70;99.90
46091;DHT22;31826;53.572;10.170;2022-11-18T11:04:51;1.70;99.90
46091;DHT22;31826;53.572;10.170;2022-11-18T11:07:27;1.60;99.90
46091;DHT22;31826;53.572;10.170;2022-11-18T11:12:43;1.70;99.90
46091;DHT22;31826;53.572;10.170;2022-11-18T11:15:16;1.60;99.90
46091;DHT22;31826;53.572;10.170;2022-11-18T11:18:18;1.60;99.90
46091;DHT22;31826;53.572;10.170;2022-11-18T11:21:14;1.60;99.90
46091;DHT22;31826;53.572;10.170;2022-11-18T11:23:41;1.70;99.90
46091;DHT22;31826;53.572;10.170;2022-11-18T11:29:21;1.70;99.90
46091;DHT22;31826;53.572;10.170;2022-11-18T11:37:08;1.70;99.90
46091;DHT22;31826;53.572;10.170;2022-11-18T11:45:19;1.80;99.90
46091;DHT22;31826;53.572;10.170;2022-11-18T11:53:16;1.70;99.90
46091;DHT22;31826;53.572;10.170;2022-11-18T11:58:37;1.70;99.90
46091;DHT22;31826;53.572;10.170;2022-11-18T12:06:35;1.90;99.90
46091;DHT22;31826;53.572;10.170;2022-11-18T12:09:20;1.90;99.90
46091;DHT22;31826;53.572;10.170;2022-11-18T12:14:56;1.90;99.90
46091;DHT22;31826;53.572;10.170;2022-11-18T12:20:44;1.90;99.90
46091;DHT22;31826;53.572;10.170;2022-11-18T12:25:50;1.90;99.90
46091;DHT22;31826;53.572;10.170;2022-11-18T12:28:38;2.00;99.90
46091;DHT22;31826;53.572;10.170;2022-11-18T12:33:57;2.20;99.90
46091;DHT22;31826;53.572;10.170;2022-11-18T12:36:42;2.10;99.90
46091;DHT22;31826;53.572;10.170;2022-11-18T12:41:58;2.10;99.90
46091;DHT22;31826;53.572;10.170;2022-11-18T12:44:44;2.00;99.90
46091;DHT22;31826;53.572;10.170;2022-11-18T12:47:15;2.00;99.90
46091;DHT22;31826;53.572;10.170;2022-11-18T12:55:03;2.20;99.90
46091;DHT22;31826;53.572;10.170;2022-11-18T12:57:40;2.20;99.90
46091;DHT22;31826;53.572;10.170;2022-11-18T13:02:54;2.20;99.90
46091;DHT22;31826;53.572;10.170;2022-11-18T13:05:32;2.30;99.90
46091;DHT22;31826;53.572;10.170;2022-11-18T13:08:09;2.20;99.90
46091;DHT22;31826;53.572;10.170;2022-11-18T13:13:48;2.20;99.90
46091;DHT22;31826;53.572;10.170;2022-11-18T13:16:20;2.20;99.90
46091;DHT22;31826;53.572;10.170;2022-11-18T13:19:06;2.10;99.90
46091;DHT22;31826;53.572;10.170;2022-11-18T13:21:32;2.00;99.90
46091;DHT22;31826;53.572;10.170;2022-11-18T13:24:19;2.10;99.90
46091;DHT22;31826;53.572;10.170;2022-11-18T13:26:47;2.00;99.90
46091;DHT22;31826;53.572;10.170;2022-11-18T13:32:22;2.00;99.90
46091;DHT22;31826;53.572;10.170;2022-11-18T13:35:04;2.00;99.90
46091;DHT22;31826;53.572;10.170;2022-11-18T13:37:32;2.00;99.90
46091;DHT22;31826;53.572;10.170;2022-11-18T13:40:01;2.00;99.90
46091;DHT22;31826;53.572;10.170;2022-11-18T13:42:28;2.00;99.90
46091;DHT22;31826;53.572;10.170;2022-11-18T13:44:55;2.00;99.90
46091;DHT22;31826;53.572;10.170;2022-11-18T13:47:34;2.00;99.90
46091;DHT22;31826;53.572;10.170;2022-11-18T13:53:02;1.90;99.90
46091;DHT22;31826;53.572;10.170;2022-11-18T13:55:34;2.00;99.90
46091;DHT22;31826;53.572;10.170;2022-11-18T13:58:05;1.90;99.90
46091;DHT22;31826;53.572;10.170;2022-11-18T14:00:34;1.90;99.90
46091;DHT22;31826;53.572;10.170;2022-11-18T14:03:04;1.80;99.90
46091;DHT22;31826;53.572;10.170;2022-11-18T14:05:30;1.80;99.90
46091;DHT22;31826;53.572;10.170;2022-11-18T14:08:26;1.80;99.90
46091;DHT22;31826;53.572;10.170;2022-11-18T14:10:52;1.80;99.90
46091;DHT22;31826;53.572;10.170;2022-11-18T14:13:29;1.80;99.90
46091;DHT22;31826;53.572;10.170;2022-11-18T14:16:01;1.70;99.90
46091;DHT22;31826;53.572;10.170;2022-11-18T14:20:53;1.70;99.90
46091;DHT22;31826;53.572;10.170;2022-11-18T14:23:28;1.60;99.90
46091;DHT22;31826;53.572;10.170;2022-11-18T14:25:55;1.60;99.90
46091;DHT22;31826;53.572;10.170;2022-11-18T14:28:26;1.50;99.90
46091;DHT22;31826;53.572;10.170;2022-11-18T14:31:04;1.50;99.90
46091;DHT22;31826;53.572;10.170;2022-11-18T14:33:33;1.30;99.90
46091;DHT22;31826;53.572;10.170;2022-11-18T14:38:35;1.40;99.90
46091;DHT22;31826;53.572;10.170;2022-11-18T14:41:06;1.30;99.90
46091;DHT22;31826;53.572;10.170;2022-11-18T14:43:32;1.20;99.90
46091;DHT22;31826;53.572;10.170;2022-11-18T14:46:01;1.30;99.90
46091;DHT22;31826;53.572;10.170;2022-11-18T14:48:28;1.20;99.90
46091;DHT22;31826;53.572;10.170;2022-11-18T14:50:54;1.10;99.90
46091;DHT22;31826;53.572;10.170;2022-11-18T14:53:20;1.10;99.90
46091;DHT22;31826;53.572;10.170;2022-11-18T14:55:53;1.10;99.90
46091;DHT22;31826;53.572;10.170;2022-11-18T14:58:21;1.10;99.90
46091;DHT22;31826;53.572;10.170;2022-11-18T15:00:47;1.00;99.90
46091;DHT22;31826;53.572;10.170;2022-11-18T15:03:13;1.00;99.90
46091;DHT22;31826;53.572;10.170;2022-11-18T15:05:39;1.00;99.90
46091;DHT22;31826;53.572;10.170;2022-11-18T15:08:06;0.90;99.90
46091;DHT22;31826;53.572;10.170;2022-11-18T15:10:32;1.00;99.90
46091;DHT22;31826;53.572;10.170;2022-11-18T15:12:57;0.90;99.90
46091;DHT22;31826;53.572;10.170;2022-11-18T15:15:23;0.90;99.90
46091;DHT22;31826;53.572;10.170;2022-11-18T15:17:49;0.90;99.90
46091;DHT22;31826;53.572;10.170;2022-11-18T15:20:17;0.80;99.90
46091;DHT22;31826;53.572;10.170;2022-11-18T15:22:43;0.80;99.90
46091;DHT22;31826;53.572;10.170;2022-11-18T15:25:09;0.70;99.90
46091;DHT22;31826;53.572;10.170;2022-11-18T15:27:35;0.70;99.90
46091;DHT22;31826;53.572;10.170;2022-11-18T15:30:02;0.70;99.90
46091;DHT22;31826;53.572;10.170;2022-11-18T15:32:28;0.70;99.90
46091;DHT22;31826;53.572;10.170;2022-11-18T15:34:53;0.60;99.90
46091;DHT22;31826;53.572;10.170;2022-11-18T15:37:19;0.70;99.90
46091;DHT22;31826;53.572;10.170;2022-11-18T15:39:45;0.70;99.90
46091;DHT22;31826;53.572;10.170;2022-11-18T15:42:15;0.60;99.90
46091;DHT22;31826;53.572;10.170;2022-11-18T15:44:41;0.60;99.90
46091;DHT22;31826;53.572;10.170;2022-11-18T15:47:06;0.50;99.90
46091;DHT22;31826;53.572;10.170;2022-11-18T15:49:32;0.40;99.90
46091;DHT22;31826;53.572;10.170;2022-11-18T15:51:58;0.40;99.90
46091;DHT22;31826;53.572;10.170;2022-11-18T15:54:24;0.40;99.90
46091;DHT22;31826;53.572;10.170;2022-11-18T15:56:49;0.30;99.90
46091;DHT22;31826;53.572;10.170;2022-11-18T15:59:15;0.30;99.90
46091;DHT22;31826;53.572;10.170;2022-11-18T16:01:45;0.40;99.90
46091;DHT22;31826;53.572;10.170;2022-11-18T16:04:13;0.30;99.90
46091;DHT22;31826;53.572;10.170;2022-11-18T16:06:39;0.40;99.90
46091;DHT22;31826;53.572;10.170;2022-11-18T16:09:08;0.40;99.90
46091;DHT22;31826;53.572;10.170;2022-11-18T16:11:34;0.40;99.90
46091;DHT22;31826;53.572;10.170;2022-11-18T16:14:19;0.30;99.90
46091;DHT22;31826;53.572;10.170;2022-11-18T16:16:47;0.40;99.90
46091;DHT22;31826;53.572;10.170;2022-11-18T16:19:15;0.40;99.90
46091;DHT22;31826;53.572;10.170;2022-11-18T16:21:44;0.40;99.90
46091;DHT22;31826;53.572;10.170;2022-11-18T16:24:13;0.40;99.90
46091;DHT22;31826;53.572;10.170;2022-11-18T16:26:40;0.40;99.90
46091;DHT22;31826;53.572;10.170;2022-11-18T16:29:06;0.40;99.90
46091;DHT22;31826;53.572;10.170;2022-11-18T16:31:32;0.50;99.90
46091;DHT22;31826;53.572;10.170;2022-11-18T16:36:55;0.40;99.90
46091;DHT22;31826;53.572;10.170;2022-11-18T16:39:23;0.50;99.90
46091;DHT22;31826;53.572;10.170;2022-11-18T16:41:50;0.50;99.90
46091;DHT22;31826;53.572;10.170;2022-11-18T16:44:16;0.40;99.90
46091;DHT22;31826;53.572;10.170;2022-11-18T16:46:54;0.40;99.90
46091;DHT22;31826;53.572;10.170;2022-11-18T16:49:21;0.40;99.90
46091;DHT22;31826;53.572;10.170;2022-11-18T16:51:49;0.40;99.90
46091;DHT22;31826;53.572;10.170;2022-11-18T16:54:24;0.30;99.90
46091;DHT22;31826;53.572;10.170;2022-11-18T16:56:52;0.30;99.90
46091;DHT22;31826;53.572;10.170;2022-11-18T16:59:26;0.40;99.90
46091;DHT22;31826;53.572;10.170;2022-11-18T17:01:53;0.40;99.90
46091;DHT22;31826;53.572;10.170;2022-11-18T17:04:20;0.40;99.90
46091;DHT22;31826;53.572;10.170;2022-11-18T17:06:46;0.40;99.90
46091;DHT22;31826;53.572;10.170;2022-11-18T17:09:13;0.40;99.90
46091;DHT22;31826;53.572;10.170;2022-11-18T17:11:39;0.50;99.90
46091;DHT22;31826;53.572;10.170;2022-11-18T17:14:05;0.50;99.90
46091;DHT22;31826;53.572;10.170;2022-11-18T17:16:31;0.50;99.90
46091;DHT22;31826;53.572;10.170;2022-11-18T17:18:58;0.50;99.90
46091;DHT22;31826;53.572;10.170;2022-11-18T17:21:26;0.60;99.90
46091;DHT22;31826;53.572;10.170;2022-11-18T17:23:53;0.70;99.90
46091;DHT22;31826;53.572;10.170;2022-11-18T17:26:21;0.70;99.90
46091;DHT22;31826;53.572;10.170;2022-11-18T17:28:47;0.70;99.90
46091;DHT22;31826;53.572;10.170;2022-11-18T17:31:18;0.70;99.90
46091;DHT22;31826;53.572;10.170;2022-11-18T17:33:44;0.60;99.90
46091;DHT22;31826;53.572;10.170;2022-11-18T17:36:16;0.50;99.90
46091;DHT22;31826;53.572;10.170;2022-11-18T17:38:43;0.50;99.90
46091;DHT22;31826;53.572;10.170;2022-11-18T17:41:11;0.50;99.90
46091;DHT22;31826;53.572;10.170;2022-11-18T17:43:57;0.50;99.90
46091;DHT22;31826;53.572;10.170;2022-11-18T17:46:23;0.40;99.90
46091;DHT22;31826;53.572;10.170;2022-11-18T17:48:52;0.40;99.90
46091;DHT22;31826;53.572;10.170;2022-11-18T17:51:18;0.40;99.90
46091;DHT22;31826;53.572;10.170;2022-11-18T17:53:43;0.40;99.90
46091;DHT22;31826;53.572;10.170;2022-11-18T17:56:09;0.40;99.90
46091;DHT22;31826;53.572;10.170;2022-11-18T17:58:35;0.40;99.90
46091;DHT22;31826;53.572;10.170;2022-11-18T18:01:11;0.30;99.90